首页
METAR-TAF:

METAR-TAF

机场 :

Pembrey, 威尔士

纬度: 51-43N, 经度: 004-22W, 海拔: 3米

当前天气观测

该预报发布于1小时和24分钟前的15:50 UTC
风速9节,风向北转西北
温度 13°C
湿度 77%
气压 999 hPa
能见度10公里或以上
散云层高于2400英尺
散云层高于5000英尺
小雨

METAR: EGOP 231550Z 33009KT 9999 -RA SCT024 SCT050 13/09 Q0999 WHT

时间: 18:14 (17:14 UTC)


TAF: 丢失

超过4000个机场的气象观测和天气预报(METAR&TAF报告)。

可查询的气象台以黄色和红色小点在地图上表示。

将鼠标移到小点上方,可查看气象台名称。

然后点击查看天气观测和预报。

如需切换地图:点击带黑十字的绿色按钮放大地图;点击带横线的绿色按钮缩小地图;或者点击绿色箭头查看邻近地区的地图。


METAR-TAF: